sensor_id;sensor_type;location;lat;lon;timestamp;pressure;altitude;pressure_sealevel;temperature;humidity
58243;BME280;50118;53.232;8.252;2024-03-25T00:01:10;100189.63;;;4.18;100.00
58243;BME280;50118;53.232;8.252;2024-03-25T00:03:35;100189.16;;;4.13;100.00
58243;BME280;50118;53.232;8.252;2024-03-25T00:06:00;100196.56;;;4.07;100.00
58243;BME280;50118;53.232;8.252;2024-03-25T00:08:26;100191.91;;;4.11;100.00
58243;BME280;50118;53.232;8.252;2024-03-25T00:10:51;100189.38;;;4.09;100.00
58243;BME280;50118;53.232;8.252;2024-03-25T00:13:17;100194.66;;;4.09;100.00
58243;BME280;50118;53.232;8.252;2024-03-25T00:15:45;100205.53;;;4.05;100.00
58243;BME280;50118;53.232;8.252;2024-03-25T00:18:10;100203.97;;;4.02;100.00
58243;BME280;50118;53.232;8.252;2024-03-25T00:20:36;100202.41;;;4.00;100.00
58243;BME280;50118;53.232;8.252;2024-03-25T00:23:02;100211.84;;;3.91;100.00
58243;BME280;50118;53.232;8.252;2024-03-25T00:25:28;100209.00;;;3.94;100.00
58243;BME280;50118;53.232;8.252;2024-03-25T00:27:53;100212.31;;;3.85;100.00
58243;BME280;50118;53.232;8.252;2024-03-25T00:30:19;100214.69;;;3.77;100.00
58243;BME280;50118;53.232;8.252;2024-03-25T00:32:44;100213.94;;;3.74;100.00
58243;BME280;50118;53.232;8.252;2024-03-25T00:35:10;100227.09;;;3.74;100.00
58243;BME280;50118;53.232;8.252;2024-03-25T00:37:36;100216.56;;;3.74;100.00
58243;BME280;50118;53.232;8.252;2024-03-25T00:40:01;100221.47;;;3.68;100.00
58243;BME280;50118;53.232;8.252;2024-03-25T00:42:27;100221.09;;;3.61;100.00
58243;BME280;50118;53.232;8.252;2024-03-25T00:44:53;100219.84;;;3.54;100.00
58243;BME280;50118;53.232;8.252;2024-03-25T00:47:18;100224.47;;;3.39;100.00
58243;BME280;50118;53.232;8.252;2024-03-25T00:49:44;100216.16;;;3.32;100.00
58243;BME280;50118;53.232;8.252;2024-03-25T00:52:09;100215.75;;;3.26;100.00
58243;BME280;50118;53.232;8.252;2024-03-25T00:54:35;100223.38;;;3.17;100.00
58243;BME280;50118;53.232;8.252;2024-03-25T00:57:00;100217.47;;;3.14;100.00
58243;BME280;50118;53.232;8.252;2024-03-25T00:59:26;100214.13;;;3.12;100.00
58243;BME280;50118;53.232;8.252;2024-03-25T01:01:51;100205.84;;;3.05;100.00
58243;BME280;50118;53.232;8.252;2024-03-25T01:04:17;100211.53;;;2.99;100.00
58243;BME280;50118;53.232;8.252;2024-03-25T01:06:43;100213.09;;;3.02;100.00
58243;BME280;50118;53.232;8.252;2024-03-25T01:09:08;100206.56;;;3.07;100.00
58243;BME280;50118;53.232;8.252;2024-03-25T01:11:35;100202.13;;;3.08;100.00
58243;BME280;50118;53.232;8.252;2024-03-25T01:14:00;100201.81;;;3.12;100.00
58243;BME280;50118;53.232;8.252;2024-03-25T01:16:26;100201.22;;;3.20;100.00
58243;BME280;50118;53.232;8.252;2024-03-25T01:18:52;100212.06;;;3.28;100.00
58243;BME280;50118;53.232;8.252;2024-03-25T01:21:17;100203.94;;;3.31;100.00
58243;BME280;50118;53.232;8.252;2024-03-25T01:23:43;100201.16;;;3.46;100.00
58243;BME280;50118;53.232;8.252;2024-03-25T01:26:08;100210.09;;;3.43;100.00
58243;BME280;50118;53.232;8.252;2024-03-25T01:28:34;100205.44;;;3.47;100.00
58243;BME280;50118;53.232;8.252;2024-03-25T01:31:00;100201.16;;;3.46;100.00
58243;BME280;50118;53.232;8.252;2024-03-25T01:33:25;100201.38;;;3.43;100.00
58243;BME280;50118;53.232;8.252;2024-03-25T01:35:51;100200.50;;;3.42;100.00
58243;BME280;50118;53.232;8.252;2024-03-25T01:38:16;100201.97;;;3.46;100.00
58243;BME280;50118;53.232;8.252;2024-03-25T01:40:42;100204.72;;;3.45;100.00
58243;BME280;50118;53.232;8.252;2024-03-25T01:43:07;100211.69;;;3.46;100.00
58243;BME280;50118;53.232;8.252;2024-03-25T01:45:34;100218.41;;;3.50;100.00
58243;BME280;50118;53.232;8.252;2024-03-25T01:48:06;100218.41;;;3.50;100.00
58243;BME280;50118;53.232;8.252;2024-03-25T01:50:36;100224.16;;;3.55;100.00
58243;BME280;50118;53.232;8.252;2024-03-25T01:53:03;100216.47;;;3.52;100.00
58243;BME280;50118;53.232;8.252;2024-03-25T01:55:30;100225.09;;;3.54;100.00
58243;BME280;50118;53.232;8.252;2024-03-25T01:57:58;100223.44;;;3.53;100.00
58243;BME280;50118;53.232;8.252;2024-03-25T02:00:24;100222.94;;;3.48;100.00
58243;BME280;50118;53.232;8.252;2024-03-25T02:02:52;100229.88;;;3.49;100.00
58243;BME280;50118;53.232;8.252;2024-03-25T02:05:18;100234.31;;;3.48;100.00
58243;BME280;50118;53.232;8.252;2024-03-25T02:07:45;100240.88;;;3.43;100.00
58243;BME280;50118;53.232;8.252;2024-03-25T02:10:11;100235.88;;;3.51;100.00
58243;BME280;50118;53.232;8.252;2024-03-25T02:12:43;100239.47;;;3.50;100.00
58243;BME280;50118;53.232;8.252;2024-03-25T02:15:10;100242.81;;;3.52;100.00
58243;BME280;50118;53.232;8.252;2024-03-25T02:17:36;100244.50;;;3.53;100.00
58243;BME280;50118;53.232;8.252;2024-03-25T02:20:02;100251.69;;;3.51;100.00
58243;BME280;50118;53.232;8.252;2024-03-25T02:22:28;100242.59;;;3.55;100.00
58243;BME280;50118;53.232;8.252;2024-03-25T02:24:57;100240.91;;;3.54;100.00
58243;BME280;50118;53.232;8.252;2024-03-25T02:27:23;100254.06;;;3.54;100.00
58243;BME280;50118;53.232;8.252;2024-03-25T02:29:48;100258.41;;;3.55;100.00
58243;BME280;50118;53.232;8.252;2024-03-25T02:32:14;100253.84;;;3.57;100.00
58243;BME280;50118;53.232;8.252;2024-03-25T02:34:44;100249.69;;;3.66;100.00
58243;BME280;50118;53.232;8.252;2024-03-25T02:37:11;100254.88;;;3.67;100.00
58243;BME280;50118;53.232;8.252;2024-03-25T02:39:36;100254.13;;;3.65;100.00
58243;BME280;50118;53.232;8.252;2024-03-25T02:42:02;100255.84;;;3.66;100.00
58243;BME280;50118;53.232;8.252;2024-03-25T02:44:28;100251.84;;;3.61;100.00
58243;BME280;50118;53.232;8.252;2024-03-25T02:46:55;100254.56;;;3.59;100.00
58243;BME280;50118;53.232;8.252;2024-03-25T02:49:20;100263.44;;;3.58;100.00
58243;BME280;50118;53.232;8.252;2024-03-25T02:51:46;100260.09;;;3.56;100.00
58243;BME280;50118;53.232;8.252;2024-03-25T02:54:11;100262.75;;;3.67;100.00
58243;BME280;50118;53.232;8.252;2024-03-25T02:56:37;100257.97;;;3.61;100.00
58243;BME280;50118;53.232;8.252;2024-03-25T02:59:02;100268.50;;;3.61;100.00
58243;BME280;50118;53.232;8.252;2024-03-25T03:01:28;100269.00;;;3.66;100.00
58243;BME280;50118;53.232;8.252;2024-03-25T03:03:53;100265.41;;;3.67;100.00
58243;BME280;50118;53.232;8.252;2024-03-25T03:06:19;100269.72;;;3.68;100.00
58243;BME280;50118;53.232;8.252;2024-03-25T03:08:45;100285.31;;;3.71;100.00
58243;BME280;50118;53.232;8.252;2024-03-25T03:11:10;100279.03;;;3.61;100.00
58243;BME280;50118;53.232;8.252;2024-03-25T03:13:36;100283.13;;;3.65;100.00
58243;BME280;50118;53.232;8.252;2024-03-25T03:16:01;100289.97;;;3.68;100.00
58243;BME280;50118;53.232;8.252;2024-03-25T03:18:27;100288.16;;;3.68;100.00
58243;BME280;50118;53.232;8.252;2024-03-25T03:20:53;100293.31;;;3.70;100.00
58243;BME280;50118;53.232;8.252;2024-03-25T03:23:21;100288.66;;;3.73;100.00
58243;BME280;50118;53.232;8.252;2024-03-25T03:25:47;100287.56;;;3.65;100.00
58243;BME280;50118;53.232;8.252;2024-03-25T03:28:12;100286.66;;;3.53;100.00
58243;BME280;50118;53.232;8.252;2024-03-25T03:30:38;100284.13;;;3.51;100.00
58243;BME280;50118;53.232;8.252;2024-03-25T03:33:04;100282.78;;;3.46;100.00
58243;BME280;50118;53.232;8.252;2024-03-25T03:35:32;100276.53;;;3.47;100.00
58243;BME280;50118;53.232;8.252;2024-03-25T03:37:58;100287.91;;;3.47;100.00
58243;BME280;50118;53.232;8.252;2024-03-25T03:40:23;100284.75;;;3.42;100.00
58243;BME280;50118;53.232;8.252;2024-03-25T03:42:49;100296.16;;;3.43;100.00
58243;BME280;50118;53.232;8.252;2024-03-25T03:45:14;100301.44;;;3.43;100.00
58243;BME280;50118;53.232;8.252;2024-03-25T03:47:40;100303.34;;;3.41;100.00
58243;BME280;50118;53.232;8.252;2024-03-25T03:50:06;100307.53;;;3.43;100.00
58243;BME280;50118;53.232;8.252;2024-03-25T03:52:33;100305.50;;;3.47;100.00
58243;BME280;50118;53.232;8.252;2024-03-25T03:54:58;100314.38;;;3.46;100.00
58243;BME280;50118;53.232;8.252;2024-03-25T03:57:24;100315.84;;;3.50;100.00
58243;BME280;50118;53.232;8.252;2024-03-25T03:59:51;100307.81;;;3.51;100.00
58243;BME280;50118;53.232;8.252;2024-03-25T04:02:17;100307.72;;;3.53;100.00
58243;BME280;50118;53.232;8.252;2024-03-25T04:04:42;100313.63;;;3.44;100.00
58243;BME280;50118;53.232;8.252;2024-03-25T04:07:09;100308.34;;;3.44;100.00
58243;BME280;50118;53.232;8.252;2024-03-25T04:09:34;100306.47;;;3.46;100.00
58243;BME280;50118;53.232;8.252;2024-03-25T04:12:00;100310.47;;;3.51;100.00
58243;BME280;50118;53.232;8.252;2024-03-25T04:14:26;100315.72;;;3.51;100.00
58243;BME280;50118;53.232;8.252;2024-03-25T04:16:52;100312.16;;;3.52;100.00
58243;BME280;50118;53.232;8.252;2024-03-25T04:19:19;100308.75;;;3.50;100.00
58243;BME280;50118;53.232;8.252;2024-03-25T04:21:45;100313.41;;;3.47;100.00
58243;BME280;50118;53.232;8.252;2024-03-25T04:24:11;100315.31;;;3.45;100.00
58243;BME280;50118;53.232;8.252;2024-03-25T04:26:37;100313.34;;;3.35;100.00
58243;BME280;50118;53.232;8.252;2024-03-25T04:29:02;100310.63;;;3.24;100.00
58243;BME280;50118;53.232;8.252;2024-03-25T04:31:28;100310.13;;;3.19;100.00
58243;BME280;50118;53.232;8.252;2024-03-25T04:33:53;100310.75;;;3.10;100.00
58243;BME280;50118;53.232;8.252;2024-03-25T04:36:19;100318.78;;;3.08;100.00
58243;BME280;50118;53.232;8.252;2024-03-25T04:38:44;100321.50;;;3.07;100.00
58243;BME280;50118;53.232;8.252;2024-03-25T04:41:10;100323.19;;;3.08;100.00
58243;BME280;50118;53.232;8.252;2024-03-25T04:43:35;100322.34;;;3.07;100.00
58243;BME280;50118;53.232;8.252;2024-03-25T04:46:01;100322.97;;;3.11;100.00
58243;BME280;50118;53.232;8.252;2024-03-25T04:48:26;100334.88;;;3.04;100.00
58243;BME280;50118;53.232;8.252;2024-03-25T04:50:52;100334.34;;;2.98;100.00
58243;BME280;50118;53.232;8.252;2024-03-25T04:53:17;100343.38;;;2.94;100.00
58243;BME280;50118;53.232;8.252;2024-03-25T04:55:43;100337.72;;;2.88;100.00
58243;BME280;50118;53.232;8.252;2024-03-25T04:58:08;100341.09;;;2.77;100.00
58243;BME280;50118;53.232;8.252;2024-03-25T05:00:34;100348.03;;;2.78;100.00
58243;BME280;50118;53.232;8.252;2024-03-25T05:02:59;100349.59;;;2.80;100.00
58243;BME280;50118;53.232;8.252;2024-03-25T05:05:25;100352.84;;;2.84;100.00
58243;BME280;50118;53.232;8.252;2024-03-25T05:07:50;100357.91;;;2.87;100.00
58243;BME280;50118;53.232;8.252;2024-03-25T05:10:16;100362.34;;;2.87;100.00
58243;BME280;50118;53.232;8.252;2024-03-25T05:12:41;100364.44;;;2.94;100.00
58243;BME280;50118;53.232;8.252;2024-03-25T05:15:09;100369.69;;;2.94;100.00
58243;BME280;50118;53.232;8.252;2024-03-25T05:17:34;100364.22;;;2.97;100.00
58243;BME280;50118;53.232;8.252;2024-03-25T05:20:00;100369.19;;;3.02;100.00
58243;BME280;50118;53.232;8.252;2024-03-25T05:22:25;100356.75;;;3.04;100.00
58243;BME280;50118;53.232;8.252;2024-03-25T05:24:51;100357.38;;;3.08;100.00
58243;BME280;50118;53.232;8.252;2024-03-25T05:27:16;100359.81;;;3.11;100.00
58243;BME280;50118;53.232;8.252;2024-03-25T05:29:42;100356.75;;;3.17;100.00
58243;BME280;50118;53.232;8.252;2024-03-25T05:32:07;100364.22;;;3.23;100.00
58243;BME280;50118;53.232;8.252;2024-03-25T05:34:33;100363.06;;;3.27;100.00
58243;BME280;50118;53.232;8.252;2024-03-25T05:36:58;100360.44;;;3.27;100.00
58243;BME280;50118;53.232;8.252;2024-03-25T05:39:24;100370.00;;;3.28;100.00
58243;BME280;50118;53.232;8.252;2024-03-25T05:41:49;100365.69;;;3.27;100.00
58243;BME280;50118;53.232;8.252;2024-03-25T05:44:15;100378.75;;;3.29;100.00
58243;BME280;50118;53.232;8.252;2024-03-25T05:46:41;100383.16;;;3.28;100.00
58243;BME280;50118;53.232;8.252;2024-03-25T05:49:06;100385.78;;;3.28;100.00
58243;BME280;50118;53.232;8.252;2024-03-25T05:51:32;100383.91;;;3.30;100.00
58243;BME280;50118;53.232;8.252;2024-03-25T05:54:01;100395.19;;;3.32;100.00
58243;BME280;50118;53.232;8.252;2024-03-25T05:56:27;100395.34;;;3.42;100.00
58243;BME280;50118;53.232;8.252;2024-03-25T05:58:56;100396.44;;;3.40;100.00
58243;BME280;50118;53.232;8.252;2024-03-25T06:01:22;100398.84;;;3.43;100.00
58243;BME280;50118;53.232;8.252;2024-03-25T06:03:48;100401.28;;;3.46;100.00
58243;BME280;50118;53.232;8.252;2024-03-25T06:06:13;100401.25;;;3.59;100.00
58243;BME280;50118;53.232;8.252;2024-03-25T06:08:39;100408.63;;;3.53;100.00
58243;BME280;50118;53.232;8.252;2024-03-25T06:11:04;100408.38;;;3.69;100.00
58243;BME280;50118;53.232;8.252;2024-03-25T06:13:30;100403.41;;;3.78;100.00
58243;BME280;50118;53.232;8.252;2024-03-25T06:15:55;100407.06;;;3.88;100.00
58243;BME280;50118;53.232;8.252;2024-03-25T06:18:21;100405.94;;;4.03;100.00
58243;BME280;50118;53.232;8.252;2024-03-25T06:20:46;100417.66;;;4.12;100.00
58243;BME280;50118;53.232;8.252;2024-03-25T06:23:25;100419.88;;;4.29;100.00
58243;BME280;50118;53.232;8.252;2024-03-25T06:25:51;100420.50;;;4.33;100.00
58243;BME280;50118;53.232;8.252;2024-03-25T06:28:18;100421.41;;;4.45;100.00
58243;BME280;50118;53.232;8.252;2024-03-25T06:30:48;100427.72;;;4.42;100.00
58243;BME280;50118;53.232;8.252;2024-03-25T06:33:32;100420.91;;;4.51;100.00
58243;BME280;50118;53.232;8.252;2024-03-25T06:36:17;100428.06;;;4.62;100.00
58243;BME280;50118;53.232;8.252;2024-03-25T06:38:43;100430.19;;;4.57;100.00
58243;BME280;50118;53.232;8.252;2024-03-25T06:41:08;100432.13;;;4.66;100.00
58243;BME280;50118;53.232;8.252;2024-03-25T06:43:34;100436.97;;;4.72;100.00
58243;BME280;50118;53.232;8.252;2024-03-25T06:46:00;100437.78;;;4.73;100.00
58243;BME280;50118;53.232;8.252;2024-03-25T06:48:25;100429.22;;;4.82;100.00
58243;BME280;50118;53.232;8.252;2024-03-25T06:50:58;100434.59;;;4.92;100.00
58243;BME280;50118;53.232;8.252;2024-03-25T06:53:24;100424.06;;;4.92;100.00
58243;BME280;50118;53.232;8.252;2024-03-25T06:56:00;100445.22;;;5.26;100.00
58243;BME280;50118;53.232;8.252;2024-03-25T06:58:27;100439.00;;;5.72;100.00
58243;BME280;50118;53.232;8.252;2024-03-25T07:00:54;100442.56;;;6.16;100.00
58243;BME280;50118;53.232;8.252;2024-03-25T07:03:21;100450.19;;;6.42;100.00
58243;BME280;50118;53.232;8.252;2024-03-25T07:05:48;100459.00;;;6.42;100.00
58243;BME280;50118;53.232;8.252;2024-03-25T07:08:14;100472.06;;;6.11;100.00
58243;BME280;50118;53.232;8.252;2024-03-25T07:10:44;100473.13;;;6.09;100.00
58243;BME280;50118;53.232;8.252;2024-03-25T07:13:10;100471.78;;;5.92;100.00
58243;BME280;50118;53.232;8.252;2024-03-25T07:15:36;100470.59;;;6.07;100.00
58243;BME280;50118;53.232;8.252;2024-03-25T07:18:02;100467.31;;;6.38;100.00
58243;BME280;50118;53.232;8.252;2024-03-25T07:20:31;100477.72;;;6.83;100.00
58243;BME280;50118;53.232;8.252;2024-03-25T07:22:57;100483.38;;;7.10;100.00
58243;BME280;50118;53.232;8.252;2024-03-25T07:25:25;100480.13;;;7.07;100.00
58243;BME280;50118;53.232;8.252;2024-03-25T07:27:51;100483.75;;;6.85;100.00
58243;BME280;50118;53.232;8.252;2024-03-25T07:30:20;100489.56;;;6.67;100.00
58243;BME280;50118;53.232;8.252;2024-03-25T07:32:47;100482.59;;;6.66;100.00
58243;BME280;50118;53.232;8.252;2024-03-25T07:35:13;100481.00;;;6.43;100.00
58243;BME280;50118;53.232;8.252;2024-03-25T07:37:42;100482.88;;;6.52;100.00
58243;BME280;50118;53.232;8.252;2024-03-25T07:40:08;100473.06;;;6.96;100.00
58243;BME280;50118;53.232;8.252;2024-03-25T07:42:35;100472.94;;;8.11;100.00
58243;BME280;50118;53.232;8.252;2024-03-25T07:45:00;100480.47;;;8.47;100.00
58243;BME280;50118;53.232;8.252;2024-03-25T07:47:26;100478.94;;;9.60;100.00
58243;BME280;50118;53.232;8.252;2024-03-25T07:49:53;100479.34;;;8.98;100.00
58243;BME280;50118;53.232;8.252;2024-03-25T07:52:18;100483.88;;;9.45;100.00
58243;BME280;50118;53.232;8.252;2024-03-25T07:54:44;100481.28;;;9.06;100.00
58243;BME280;50118;53.232;8.252;2024-03-25T07:57:09;100482.16;;;8.77;100.00
58243;BME280;50118;53.232;8.252;2024-03-25T07:59:35;100483.81;;;8.08;100.00
58243;BME280;50118;53.232;8.252;2024-03-25T08:02:00;100487.13;;;7.60;100.00
58243;BME280;50118;53.232;8.252;2024-03-25T08:04:26;100487.09;;;7.81;100.00
58243;BME280;50118;53.232;8.252;2024-03-25T08:06:51;100496.84;;;8.31;100.00
58243;BME280;50118;53.232;8.252;2024-03-25T08:09:17;100489.31;;;8.36;100.00
58243;BME280;50118;53.232;8.252;2024-03-25T08:11:43;100489.75;;;8.41;100.00
58243;BME280;50118;53.232;8.252;2024-03-25T08:14:14;100486.47;;;8.49;100.00
58243;BME280;50118;53.232;8.252;2024-03-25T08:16:40;100491.50;;;8.81;100.00
58243;BME280;50118;53.232;8.252;2024-03-25T08:19:06;100489.84;;;9.09;100.00
58243;BME280;50118;53.232;8.252;2024-03-25T08:21:31;100485.63;;;8.68;100.00
58243;BME280;50118;53.232;8.252;2024-03-25T08:23:57;100488.72;;;8.92;100.00
58243;BME280;50118;53.232;8.252;2024-03-25T08:26:22;100487.66;;;9.52;100.00
58243;BME280;50118;53.232;8.252;2024-03-25T08:28:48;100485.75;;;8.95;100.00
58243;BME280;50118;53.232;8.252;2024-03-25T08:31:16;100487.69;;;9.32;100.00
58243;BME280;50118;53.232;8.252;2024-03-25T08:33:42;100490.91;;;9.73;100.00
58243;BME280;50118;53.232;8.252;2024-03-25T08:36:07;100488.56;;;9.70;100.00
58243;BME280;50118;53.232;8.252;2024-03-25T08:38:33;100495.50;;;9.44;100.00
58243;BME280;50118;53.232;8.252;2024-03-25T08:40:58;100497.53;;;9.97;100.00
58243;BME280;50118;53.232;8.252;2024-03-25T08:43:24;100499.94;;;9.53;100.00
58243;BME280;50118;53.232;8.252;2024-03-25T08:45:49;100506.88;;;9.26;100.00
58243;BME280;50118;53.232;8.252;2024-03-25T08:48:15;100500.81;;;10.82;100.00
58243;BME280;50118;53.232;8.252;2024-03-25T08:50:40;100506.31;;;9.80;100.00
58243;BME280;50118;53.232;8.252;2024-03-25T08:53:06;100508.53;;;9.84;100.00
58243;BME280;50118;53.232;8.252;2024-03-25T08:55:33;100506.81;;;9.46;96.56
58243;BME280;50118;53.232;8.252;2024-03-25T08:57:58;100511.22;;;8.88;100.00
58243;BME280;50118;53.232;8.252;2024-03-25T09:00:25;100508.63;;;8.38;100.00
58243;BME280;50118;53.232;8.252;2024-03-25T09:02:51;100510.66;;;8.85;100.00
58243;BME280;50118;53.232;8.252;2024-03-25T09:05:16;100514.25;;;8.54;100.00
58243;BME280;50118;53.232;8.252;2024-03-25T09:07:50;100509.94;;;8.63;100.00
58243;BME280;50118;53.232;8.252;2024-03-25T09:10:17;100511.78;;;8.92;100.00
58243;BME280;50118;53.232;8.252;2024-03-25T09:13:02;100510.34;;;8.49;100.00
58243;BME280;50118;53.232;8.252;2024-03-25T09:15:29;100517.22;;;8.20;100.00
58243;BME280;50118;53.232;8.252;2024-03-25T09:17:55;100504.69;;;8.22;100.00
58243;BME280;50118;53.232;8.252;2024-03-25T09:20:20;100508.94;;;8.54;100.00
58243;BME280;50118;53.232;8.252;2024-03-25T09:22:47;100501.59;;;8.77;100.00
58243;BME280;50118;53.232;8.252;2024-03-25T09:25:16;100502.25;;;8.50;100.00
58243;BME280;50118;53.232;8.252;2024-03-25T09:27:45;100506.75;;;8.79;100.00
58243;BME280;50118;53.232;8.252;2024-03-25T09:30:11;100519.28;;;9.35;100.00
58243;BME280;50118;53.232;8.252;2024-03-25T09:32:37;100504.47;;;9.80;100.00
58243;BME280;50118;53.232;8.252;2024-03-25T09:35:03;100512.75;;;10.42;95.48
58243;BME280;50118;53.232;8.252;2024-03-25T09:37:28;100519.19;;;11.30;85.97
58243;BME280;50118;53.232;8.252;2024-03-25T09:39:54;100516.88;;;10.55;83.90
58243;BME280;50118;53.232;8.252;2024-03-25T09:42:25;100510.72;;;9.89;87.39
58243;BME280;50118;53.232;8.252;2024-03-25T09:44:53;100510.28;;;9.56;95.18
58243;BME280;50118;53.232;8.252;2024-03-25T09:47:20;100508.97;;;10.07;98.76
58243;BME280;50118;53.232;8.252;2024-03-25T09:49:45;100517.31;;;9.57;94.11
58243;BME280;50118;53.232;8.252;2024-03-25T09:52:11;100515.84;;;9.72;92.64
58243;BME280;50118;53.232;8.252;2024-03-25T09:54:37;100514.38;;;9.41;97.25
58243;BME280;50118;53.232;8.252;2024-03-25T09:57:03;100524.09;;;8.93;100.00
58243;BME280;50118;53.232;8.252;2024-03-25T09:59:29;100527.00;;;8.80;100.00
58243;BME280;50118;53.232;8.252;2024-03-25T10:01:55;100522.69;;;8.79;100.00
58243;BME280;50118;53.232;8.252;2024-03-25T10:04:21;100526.47;;;8.67;100.00
58243;BME280;50118;53.232;8.252;2024-03-25T10:06:47;100518.47;;;8.57;100.00
58243;BME280;50118;53.232;8.252;2024-03-25T10:09:13;100515.94;;;8.55;100.00
58243;BME280;50118;53.232;8.252;2024-03-25T10:11:39;100515.97;;;8.94;99.37
58243;BME280;50118;53.232;8.252;2024-03-25T10:14:04;100513.16;;;9.06;100.00
58243;BME280;50118;53.232;8.252;2024-03-25T10:16:30;100515.69;;;9.07;100.00
58243;BME280;50118;53.232;8.252;2024-03-25T10:18:55;100521.00;;;9.27;100.00
58243;BME280;50118;53.232;8.252;2024-03-25T10:21:21;100520.41;;;9.43;98.73
58243;BME280;50118;53.232;8.252;2024-03-25T10:23:48;100521.47;;;9.97;100.00
58243;BME280;50118;53.232;8.252;2024-03-25T10:26:32;100520.97;;;9.84;94.94
58243;BME280;50118;53.232;8.252;2024-03-25T10:29:04;100520.72;;;9.01;98.02
58243;BME280;50118;53.232;8.252;2024-03-25T10:31:30;100522.13;;;9.14;98.97
58243;BME280;50118;53.232;8.252;2024-03-25T10:33:56;100528.56;;;9.12;100.00
58243;BME280;50118;53.232;8.252;2024-03-25T10:36:22;100532.47;;;8.69;96.83
58243;BME280;50118;53.232;8.252;2024-03-25T10:38:56;100530.53;;;8.81;99.87
58243;BME280;50118;53.232;8.252;2024-03-25T10:41:23;100528.97;;;8.78;100.00
58243;BME280;50118;53.232;8.252;2024-03-25T10:43:53;100537.94;;;8.27;100.00
58243;BME280;50118;53.232;8.252;2024-03-25T10:46:22;100530.78;;;8.27;100.00
58243;BME280;50118;53.232;8.252;2024-03-25T10:51:14;100527.72;;;9.11;100.00
58243;BME280;50118;53.232;8.252;2024-03-25T10:53:41;100522.31;;;9.60;100.00
58243;BME280;50118;53.232;8.252;2024-03-25T10:56:07;100524.38;;;9.00;100.00
58243;BME280;50118;53.232;8.252;2024-03-25T10:58:33;100524.22;;;8.91;100.00
58243;BME280;50118;53.232;8.252;2024-03-25T11:00:59;100529.53;;;9.21;100.00
58243;BME280;50118;53.232;8.252;2024-03-25T11:03:26;100528.53;;;9.31;100.00
58243;BME280;50118;53.232;8.252;2024-03-25T11:05:52;100527.41;;;9.24;100.00
58243;BME280;50118;53.232;8.252;2024-03-25T11:08:17;100518.50;;;8.86;100.00
58243;BME280;50118;53.232;8.252;2024-03-25T11:10:44;100523.59;;;9.46;100.00
58243;BME280;50118;53.232;8.252;2024-03-25T11:13:14;100513.47;;;9.69;100.00
58243;BME280;50118;53.232;8.252;2024-03-25T11:15:44;100508.16;;;9.69;91.02
58243;BME280;50118;53.232;8.252;2024-03-25T11:18:13;100515.06;;;9.43;97.50
58243;BME280;50118;53.232;8.252;2024-03-25T11:20:39;100516.44;;;9.57;88.94
58243;BME280;50118;53.232;8.252;2024-03-25T11:23:14;100504.25;;;10.01;91.22
58243;BME280;50118;53.232;8.252;2024-03-25T11:25:40;100507.59;;;9.76;84.18
58243;BME280;50118;53.232;8.252;2024-03-25T11:28:06;100490.84;;;9.93;86.27
58243;BME280;50118;53.232;8.252;2024-03-25T11:30:33;100494.09;;;10.15;82.86
58243;BME280;50118;53.232;8.252;2024-03-25T11:33:02;100493.94;;;11.16;81.10
58243;BME280;50118;53.232;8.252;2024-03-25T11:35:30;100486.69;;;11.08;78.45
58243;BME280;50118;53.232;8.252;2024-03-25T11:37:55;100489.44;;;11.16;73.92
58243;BME280;50118;53.232;8.252;2024-03-25T11:40:21;100477.47;;;10.76;72.83
58243;BME280;50118;53.232;8.252;2024-03-25T11:42:47;100483.41;;;10.70;76.54
58243;BME280;50118;53.232;8.252;2024-03-25T11:45:20;100487.78;;;10.43;77.77
58243;BME280;50118;53.232;8.252;2024-03-25T11:47:47;100482.69;;;10.50;79.54
58243;BME280;50118;53.232;8.252;2024-03-25T11:50:17;100479.69;;;9.80;83.08
58243;BME280;50118;53.232;8.252;2024-03-25T11:52:43;100478.00;;;9.79;87.68
58243;BME280;50118;53.232;8.252;2024-03-25T11:55:09;100477.16;;;9.88;86.88
58243;BME280;50118;53.232;8.252;2024-03-25T11:57:36;100476.75;;;10.38;82.04
58243;BME280;50118;53.232;8.252;2024-03-25T12:00:03;100475.47;;;10.78;77.98
58243;BME280;50118;53.232;8.252;2024-03-25T12:02:32;100463.50;;;11.27;77.80
58243;BME280;50118;53.232;8.252;2024-03-25T12:04:58;100472.78;;;10.96;78.09
58243;BME280;50118;53.232;8.252;2024-03-25T12:07:23;100468.31;;;11.23;78.30
58243;BME280;50118;53.232;8.252;2024-03-25T12:09:49;100464.53;;;10.81;77.90
58243;BME280;50118;53.232;8.252;2024-03-25T12:12:33;100462.72;;;11.08;76.88
58243;BME280;50118;53.232;8.252;2024-03-25T12:15:00;100459.41;;;10.34;77.24
58243;BME280;50118;53.232;8.252;2024-03-25T12:17:28;100460.25;;;10.53;77.35
58243;BME280;50118;53.232;8.252;2024-03-25T12:20:04;100451.81;;;10.57;81.45
58243;BME280;50118;53.232;8.252;2024-03-25T12:22:33;100452.69;;;10.02;80.35
58243;BME280;50118;53.232;8.252;2024-03-25T12:25:04;100441.75;;;10.05;82.70
58243;BME280;50118;53.232;8.252;2024-03-25T12:27:36;100433.97;;;9.94;87.31
58243;BME280;50118;53.232;8.252;2024-03-25T12:30:09;100431.94;;;10.52;86.59
58243;BME280;50118;53.232;8.252;2024-03-25T12:37:40;100416.19;;;11.29;76.80
58243;BME280;50118;53.232;8.252;2024-03-25T12:40:09;100423.16;;;11.21;78.93
58243;BME280;50118;53.232;8.252;2024-03-25T12:42:36;100430.94;;;10.71;79.53
58243;BME280;50118;53.232;8.252;2024-03-25T12:45:02;100419.91;;;10.83;80.06
58243;BME280;50118;53.232;8.252;2024-03-25T12:47:29;100417.19;;;9.94;81.06
58243;BME280;50118;53.232;8.252;2024-03-25T12:49:54;100428.47;;;10.05;84.70
58243;BME280;50118;53.232;8.252;2024-03-25T12:52:20;100435.63;;;10.23;84.04
58243;BME280;50118;53.232;8.252;2024-03-25T12:54:46;100428.66;;;10.40;84.38